sensor_id;sensor_type;location;lat;lon;timestamp;P1;durP1;ratioP1;P2;durP2;ratioP2
19219;SDS011;9744;49.364;7.484;2022-08-27T00:00:04;13.40;;;8.00;;
19219;SDS011;9744;49.364;7.484;2022-08-27T00:02:35;8.65;;;7.43;;
19219;SDS011;9744;49.364;7.484;2022-08-27T00:05:02;9.13;;;7.85;;
19219;SDS011;9744;49.364;7.484;2022-08-27T00:07:30;11.48;;;7.97;;
19219;SDS011;9744;49.364;7.484;2022-08-27T00:09:57;10.77;;;8.02;;
19219;SDS011;9744;49.364;7.484;2022-08-27T00:12:24;14.65;;;8.68;;
19219;SDS011;9744;49.364;7.484;2022-08-27T00:14:53;11.50;;;8.68;;
19219;SDS011;9744;49.364;7.484;2022-08-27T00:17:21;10.05;;;7.28;;
19219;SDS011;9744;49.364;7.484;2022-08-27T00:19:48;9.80;;;7.25;;
19219;SDS011;9744;49.364;7.484;2022-08-27T00:22:15;8.82;;;7.88;;
19219;SDS011;9744;49.364;7.484;2022-08-27T00:24:42;12.40;;;8.38;;
19219;SDS011;9744;49.364;7.484;2022-08-27T00:27:09;13.20;;;8.07;;
19219;SDS011;9744;49.364;7.484;2022-08-27T00:29:37;9.35;;;7.80;;
19219;SDS011;9744;49.364;7.484;2022-08-27T00:32:05;11.32;;;7.53;;
19219;SDS011;9744;49.364;7.484;2022-08-27T00:34:33;16.20;;;12.05;;
19219;SDS011;9744;49.364;7.484;2022-08-27T00:37:00;20.30;;;10.75;;
19219;SDS011;9744;49.364;7.484;2022-08-27T00:39:28;11.35;;;8.05;;
19219;SDS011;9744;49.364;7.484;2022-08-27T00:41:55;13.07;;;8.20;;
19219;SDS011;9744;49.364;7.484;2022-08-27T00:44:24;17.15;;;7.65;;
19219;SDS011;9744;49.364;7.484;2022-08-27T00:46:53;12.30;;;7.72;;
19219;SDS011;9744;49.364;7.484;2022-08-27T00:49:24;18.02;;;12.75;;
19219;SDS011;9744;49.364;7.484;2022-08-27T00:51:56;13.23;;;8.90;;
19219;SDS011;9744;49.364;7.484;2022-08-27T00:54:26;22.17;;;16.45;;
19219;SDS011;9744;49.364;7.484;2022-08-27T00:56:54;22.63;;;17.63;;
19219;SDS011;9744;49.364;7.484;2022-08-27T00:59:24;26.02;;;18.88;;
19219;SDS011;9744;49.364;7.484;2022-08-27T01:01:55;24.08;;;18.70;;
19219;SDS011;9744;49.364;7.484;2022-08-27T01:04:38;26.63;;;18.77;;
19219;SDS011;9744;49.364;7.484;2022-08-27T01:07:08;26.90;;;19.33;;
19219;SDS011;9744;49.364;7.484;2022-08-27T01:09:36;28.58;;;21.05;;
19219;SDS011;9744;49.364;7.484;2022-08-27T01:12:04;26.10;;;20.45;;
19219;SDS011;9744;49.364;7.484;2022-08-27T01:14:32;27.58;;;21.60;;
19219;SDS011;9744;49.364;7.484;2022-08-27T01:16:59;30.30;;;23.02;;
19219;SDS011;9744;49.364;7.484;2022-08-27T01:19:31;31.27;;;23.35;;
19219;SDS011;9744;49.364;7.484;2022-08-27T01:22:04;22.52;;;18.48;;
19219;SDS011;9744;49.364;7.484;2022-08-27T01:24:39;29.50;;;22.92;;
19219;SDS011;9744;49.364;7.484;2022-08-27T01:27:09;25.98;;;17.23;;
19219;SDS011;9744;49.364;7.484;2022-08-27T01:29:38;30.42;;;19.38;;
19219;SDS011;9744;49.364;7.484;2022-08-27T01:32:09;21.85;;;16.38;;
19219;SDS011;9744;49.364;7.484;2022-08-27T01:34:38;22.33;;;16.92;;
19219;SDS011;9744;49.364;7.484;2022-08-27T01:37:05;18.40;;;15.27;;
19219;SDS011;9744;49.364;7.484;2022-08-27T01:39:33;17.45;;;14.93;;
19219;SDS011;9744;49.364;7.484;2022-08-27T01:42:03;21.23;;;13.90;;
19219;SDS011;9744;49.364;7.484;2022-08-27T01:48:20;13.65;;;10.48;;
19219;SDS011;9744;49.364;7.484;2022-08-27T01:50:48;14.45;;;10.07;;
19219;SDS011;9744;49.364;7.484;2022-08-27T01:53:17;9.88;;;8.73;;
19219;SDS011;9744;49.364;7.484;2022-08-27T01:55:47;11.60;;;10.13;;
19219;SDS011;9744;49.364;7.484;2022-08-27T01:58:19;11.63;;;9.82;;
19219;SDS011;9744;49.364;7.484;2022-08-27T02:00:48;12.35;;;10.45;;
19219;SDS011;9744;49.364;7.484;2022-08-27T02:03:18;11.40;;;9.85;;
19219;SDS011;9744;49.364;7.484;2022-08-27T02:05:46;11.93;;;10.65;;
19219;SDS011;9744;49.364;7.484;2022-08-27T02:08:14;14.95;;;12.38;;
19219;SDS011;9744;49.364;7.484;2022-08-27T02:10:42;12.00;;;10.15;;
19219;SDS011;9744;49.364;7.484;2022-08-27T02:13:11;12.55;;;10.60;;
19219;SDS011;9744;49.364;7.484;2022-08-27T02:15:41;13.88;;;11.52;;
19219;SDS011;9744;49.364;7.484;2022-08-27T02:18:08;13.60;;;11.15;;
19219;SDS011;9744;49.364;7.484;2022-08-27T02:20:38;14.98;;;11.95;;
19219;SDS011;9744;49.364;7.484;2022-08-27T02:23:05;15.02;;;11.25;;
19219;SDS011;9744;49.364;7.484;2022-08-27T02:25:33;14.10;;;11.90;;
19219;SDS011;9744;49.364;7.484;2022-08-27T02:28:01;12.30;;;10.35;;
19219;SDS011;9744;49.364;7.484;2022-08-27T02:30:29;18.02;;;11.20;;
19219;SDS011;9744;49.364;7.484;2022-08-27T02:33:00;13.75;;;11.05;;
19219;SDS011;9744;49.364;7.484;2022-08-27T02:35:30;13.40;;;10.48;;
19219;SDS011;9744;49.364;7.484;2022-08-27T02:37:59;12.50;;;11.25;;
19219;SDS011;9744;49.364;7.484;2022-08-27T02:40:26;12.07;;;10.77;;
19219;SDS011;9744;49.364;7.484;2022-08-27T02:42:54;13.13;;;10.50;;
19219;SDS011;9744;49.364;7.484;2022-08-27T02:45:21;14.90;;;12.25;;
19219;SDS011;9744;49.364;7.484;2022-08-27T02:47:48;15.02;;;12.25;;
19219;SDS011;9744;49.364;7.484;2022-08-27T02:50:17;17.15;;;12.68;;
19219;SDS011;9744;49.364;7.484;2022-08-27T02:52:44;17.30;;;14.13;;
19219;SDS011;9744;49.364;7.484;2022-08-27T02:55:12;16.45;;;13.52;;
19219;SDS011;9744;49.364;7.484;2022-08-27T02:57:39;14.65;;;12.95;;
19219;SDS011;9744;49.364;7.484;2022-08-27T03:00:08;13.70;;;11.88;;
19219;SDS011;9744;49.364;7.484;2022-08-27T03:02:38;15.80;;;12.93;;
19219;SDS011;9744;49.364;7.484;2022-08-27T03:05:06;17.85;;;12.48;;
19219;SDS011;9744;49.364;7.484;2022-08-27T03:07:35;13.82;;;11.30;;
19219;SDS011;9744;49.364;7.484;2022-08-27T03:10:03;14.25;;;12.70;;
19219;SDS011;9744;49.364;7.484;2022-08-27T03:12:31;15.20;;;13.15;;
19219;SDS011;9744;49.364;7.484;2022-08-27T03:15:00;16.27;;;14.25;;
19219;SDS011;9744;49.364;7.484;2022-08-27T03:17:28;17.42;;;12.70;;
19219;SDS011;9744;49.364;7.484;2022-08-27T03:20:13;13.95;;;12.50;;
19219;SDS011;9744;49.364;7.484;2022-08-27T03:22:42;16.65;;;13.88;;
19219;SDS011;9744;49.364;7.484;2022-08-27T03:25:09;14.55;;;13.07;;
19219;SDS011;9744;49.364;7.484;2022-08-27T03:27:37;14.18;;;12.73;;
19219;SDS011;9744;49.364;7.484;2022-08-27T03:30:06;14.85;;;12.18;;
19219;SDS011;9744;49.364;7.484;2022-08-27T03:32:36;13.73;;;12.32;;
19219;SDS011;9744;49.364;7.484;2022-08-27T03:35:04;13.85;;;12.38;;
19219;SDS011;9744;49.364;7.484;2022-08-27T03:37:32;11.48;;;10.18;;
19219;SDS011;9744;49.364;7.484;2022-08-27T03:40:01;11.80;;;10.00;;
19219;SDS011;9744;49.364;7.484;2022-08-27T03:42:29;16.55;;;12.32;;
19219;SDS011;9744;49.364;7.484;2022-08-27T03:44:56;13.88;;;12.40;;
19219;SDS011;9744;49.364;7.484;2022-08-27T03:47:24;11.45;;;10.35;;
19219;SDS011;9744;49.364;7.484;2022-08-27T03:49:51;9.90;;;9.00;;
19219;SDS011;9744;49.364;7.484;2022-08-27T03:52:19;8.00;;;7.20;;
19219;SDS011;9744;49.364;7.484;2022-08-27T03:54:46;6.82;;;6.22;;
19219;SDS011;9744;49.364;7.484;2022-08-27T03:57:15;6.70;;;6.03;;
19219;SDS011;9744;49.364;7.484;2022-08-27T03:59:42;8.25;;;5.85;;
19219;SDS011;9744;49.364;7.484;2022-08-27T04:02:10;6.00;;;5.32;;
19219;SDS011;9744;49.364;7.484;2022-08-27T04:04:37;9.82;;;5.15;;
19219;SDS011;9744;49.364;7.484;2022-08-27T04:07:04;7.40;;;5.05;;
19219;SDS011;9744;49.364;7.484;2022-08-27T04:09:33;5.32;;;4.78;;
19219;SDS011;9744;49.364;7.484;2022-08-27T04:12:00;4.90;;;4.05;;
19219;SDS011;9744;49.364;7.484;2022-08-27T04:14:29;4.55;;;4.10;;
19219;SDS011;9744;49.364;7.484;2022-08-27T04:16:56;4.40;;;4.00;;
19219;SDS011;9744;49.364;7.484;2022-08-27T04:19:24;5.95;;;4.47;;
19219;SDS011;9744;49.364;7.484;2022-08-27T04:21:51;4.88;;;4.40;;
19219;SDS011;9744;49.364;7.484;2022-08-27T04:24:19;4.40;;;4.00;;
19219;SDS011;9744;49.364;7.484;2022-08-27T04:26:46;3.63;;;3.33;;
19219;SDS011;9744;49.364;7.484;2022-08-27T04:29:13;8.45;;;4.40;;
19219;SDS011;9744;49.364;7.484;2022-08-27T04:31:42;4.80;;;3.17;;
19219;SDS011;9744;49.364;7.484;2022-08-27T04:34:09;3.80;;;3.17;;
19219;SDS011;9744;49.364;7.484;2022-08-27T04:36:37;3.25;;;2.85;;
19219;SDS011;9744;49.364;7.484;2022-08-27T04:39:04;2.97;;;2.78;;
19219;SDS011;9744;49.364;7.484;2022-08-27T04:41:31;4.85;;;2.90;;
19219;SDS011;9744;49.364;7.484;2022-08-27T04:44:01;3.05;;;2.85;;
19219;SDS011;9744;49.364;7.484;2022-08-27T04:46:31;3.65;;;3.03;;
19219;SDS011;9744;49.364;7.484;2022-08-27T04:49:03;3.67;;;3.38;;
19219;SDS011;9744;49.364;7.484;2022-08-27T04:51:32;3.88;;;3.58;;
19219;SDS011;9744;49.364;7.484;2022-08-27T04:53:59;4.15;;;3.75;;
19219;SDS011;9744;49.364;7.484;2022-08-27T04:56:28;4.93;;;4.47;;
19219;SDS011;9744;49.364;7.484;2022-08-27T04:58:56;4.50;;;4.10;;
19219;SDS011;9744;49.364;7.484;2022-08-27T05:01:24;5.40;;;4.38;;
19219;SDS011;9744;49.364;7.484;2022-08-27T05:03:52;5.30;;;4.80;;
19219;SDS011;9744;49.364;7.484;2022-08-27T05:06:22;5.00;;;4.47;;
19219;SDS011;9744;49.364;7.484;2022-08-27T05:08:50;4.97;;;4.57;;
19219;SDS011;9744;49.364;7.484;2022-08-27T05:11:18;5.50;;;4.65;;
19219;SDS011;9744;49.364;7.484;2022-08-27T05:13:47;5.45;;;4.95;;
19219;SDS011;9744;49.364;7.484;2022-08-27T05:16:16;4.25;;;3.85;;
19219;SDS011;9744;49.364;7.484;2022-08-27T05:18:45;4.47;;;4.07;;
19219;SDS011;9744;49.364;7.484;2022-08-27T05:21:15;3.92;;;3.42;;
19219;SDS011;9744;49.364;7.484;2022-08-27T05:23:45;3.58;;;3.05;;
19219;SDS011;9744;49.364;7.484;2022-08-27T05:26:13;6.50;;;3.42;;
19219;SDS011;9744;49.364;7.484;2022-08-27T05:28:41;4.38;;;3.97;;
19219;SDS011;9744;49.364;7.484;2022-08-27T05:31:09;3.30;;;3.00;;
19219;SDS011;9744;49.364;7.484;2022-08-27T05:33:38;3.20;;;2.88;;
19219;SDS011;9744;49.364;7.484;2022-08-27T05:36:06;3.50;;;2.97;;
19219;SDS011;9744;49.364;7.484;2022-08-27T05:38:39;3.63;;;3.33;;
19219;SDS011;9744;49.364;7.484;2022-08-27T05:41:09;3.40;;;3.10;;
19219;SDS011;9744;49.364;7.484;2022-08-27T05:43:39;3.20;;;2.95;;
19219;SDS011;9744;49.364;7.484;2022-08-27T05:46:08;4.60;;;3.75;;
19219;SDS011;9744;49.364;7.484;2022-08-27T05:48:37;4.72;;;4.25;;
19219;SDS011;9744;49.364;7.484;2022-08-27T05:51:06;5.25;;;4.75;;
19219;SDS011;9744;49.364;7.484;2022-08-27T05:53:35;5.00;;;4.50;;
19219;SDS011;9744;49.364;7.484;2022-08-27T05:56:03;7.72;;;5.80;;
19219;SDS011;9744;49.364;7.484;2022-08-27T05:58:32;6.68;;;5.97;;
19219;SDS011;9744;49.364;7.484;2022-08-27T06:01:17;3.97;;;3.65;;
19219;SDS011;9744;49.364;7.484;2022-08-27T06:03:48;6.20;;;5.55;;
19219;SDS011;9744;49.364;7.484;2022-08-27T06:06:17;5.65;;;5.05;;
19219;SDS011;9744;49.364;7.484;2022-08-27T06:08:44;4.55;;;4.15;;
19219;SDS011;9744;49.364;7.484;2022-08-27T06:11:11;5.85;;;4.40;;
19219;SDS011;9744;49.364;7.484;2022-08-27T06:13:40;5.43;;;4.45;;
19219;SDS011;9744;49.364;7.484;2022-08-27T06:16:08;5.07;;;4.63;;
19219;SDS011;9744;49.364;7.484;2022-08-27T06:18:38;6.03;;;4.50;;
19219;SDS011;9744;49.364;7.484;2022-08-27T06:21:06;4.10;;;3.67;;
19219;SDS011;9744;49.364;7.484;2022-08-27T06:23:34;5.72;;;5.13;;
19219;SDS011;9744;49.364;7.484;2022-08-27T06:26:04;4.28;;;3.88;;
19219;SDS011;9744;49.364;7.484;2022-08-27T06:28:32;7.43;;;4.15;;
19219;SDS011;9744;49.364;7.484;2022-08-27T06:31:05;6.53;;;5.85;;
19219;SDS011;9744;49.364;7.484;2022-08-27T06:33:33;8.05;;;7.22;;
19219;SDS011;9744;49.364;7.484;2022-08-27T06:36:02;11.80;;;8.77;;
19219;SDS011;9744;49.364;7.484;2022-08-27T06:38:31;15.68;;;12.95;;
19219;SDS011;9744;49.364;7.484;2022-08-27T06:40:59;9.40;;;6.95;;
19219;SDS011;9744;49.364;7.484;2022-08-27T06:43:29;10.32;;;8.40;;
19219;SDS011;9744;49.364;7.484;2022-08-27T06:46:00;16.80;;;13.18;;
19219;SDS011;9744;49.364;7.484;2022-08-27T06:48:30;11.88;;;10.15;;
19219;SDS011;9744;49.364;7.484;2022-08-27T06:50:58;12.02;;;10.05;;
19219;SDS011;9744;49.364;7.484;2022-08-27T06:53:25;12.10;;;9.23;;
19219;SDS011;9744;49.364;7.484;2022-08-27T06:55:52;11.60;;;9.82;;
19219;SDS011;9744;49.364;7.484;2022-08-27T06:58:20;15.25;;;12.13;;
19219;SDS011;9744;49.364;7.484;2022-08-27T07:00:47;16.30;;;13.77;;
19219;SDS011;9744;49.364;7.484;2022-08-27T07:03:15;16.90;;;13.38;;
19219;SDS011;9744;49.364;7.484;2022-08-27T07:05:44;17.00;;;11.50;;
19219;SDS011;9744;49.364;7.484;2022-08-27T07:08:11;18.67;;;14.65;;
19219;SDS011;9744;49.364;7.484;2022-08-27T07:10:38;17.05;;;13.27;;
19219;SDS011;9744;49.364;7.484;2022-08-27T07:13:06;15.68;;;12.20;;
19219;SDS011;9744;49.364;7.484;2022-08-27T07:15:35;15.43;;;12.32;;
19219;SDS011;9744;49.364;7.484;2022-08-27T07:18:04;19.13;;;14.85;;
19219;SDS011;9744;49.364;7.484;2022-08-27T07:20:31;15.45;;;11.57;;
19219;SDS011;9744;49.364;7.484;2022-08-27T07:23:00;26.90;;;17.88;;
19219;SDS011;9744;49.364;7.484;2022-08-27T07:25:27;18.02;;;14.00;;
19219;SDS011;9744;49.364;7.484;2022-08-27T07:27:56;23.05;;;16.52;;
19219;SDS011;9744;49.364;7.484;2022-08-27T07:30:24;18.17;;;14.13;;
19219;SDS011;9744;49.364;7.484;2022-08-27T07:32:52;18.95;;;14.88;;
19219;SDS011;9744;49.364;7.484;2022-08-27T07:35:19;18.70;;;14.18;;
19219;SDS011;9744;49.364;7.484;2022-08-27T07:37:46;17.88;;;13.77;;
19219;SDS011;9744;49.364;7.484;2022-08-27T07:40:15;23.00;;;17.85;;
19219;SDS011;9744;49.364;7.484;2022-08-27T07:42:42;16.67;;;12.98;;
19219;SDS011;9744;49.364;7.484;2022-08-27T07:45:27;21.05;;;15.25;;
19219;SDS011;9744;49.364;7.484;2022-08-27T07:47:55;15.20;;;12.63;;
19219;SDS011;9744;49.364;7.484;2022-08-27T07:50:22;17.75;;;14.38;;
19219;SDS011;9744;49.364;7.484;2022-08-27T07:52:50;14.90;;;11.68;;
19219;SDS011;9744;49.364;7.484;2022-08-27T07:55:19;19.17;;;13.43;;
19219;SDS011;9744;49.364;7.484;2022-08-27T07:57:46;17.63;;;14.20;;
19219;SDS011;9744;49.364;7.484;2022-08-27T08:00:14;17.35;;;12.75;;
19219;SDS011;9744;49.364;7.484;2022-08-27T08:02:41;14.85;;;12.57;;
19219;SDS011;9744;49.364;7.484;2022-08-27T08:05:11;17.75;;;14.15;;
19219;SDS011;9744;49.364;7.484;2022-08-27T08:07:41;20.30;;;15.98;;
19219;SDS011;9744;49.364;7.484;2022-08-27T08:10:08;23.38;;;17.85;;
19219;SDS011;9744;49.364;7.484;2022-08-27T08:12:41;18.30;;;14.25;;
19219;SDS011;9744;49.364;7.484;2022-08-27T08:15:09;18.77;;;14.50;;
19219;SDS011;9744;49.364;7.484;2022-08-27T08:17:37;18.67;;;13.32;;
19219;SDS011;9744;49.364;7.484;2022-08-27T08:20:05;19.23;;;13.90;;
19219;SDS011;9744;49.364;7.484;2022-08-27T08:22:34;15.65;;;12.05;;
19219;SDS011;9744;49.364;7.484;2022-08-27T08:25:02;24.25;;;17.00;;
19219;SDS011;9744;49.364;7.484;2022-08-27T08:27:29;16.60;;;11.73;;
19219;SDS011;9744;49.364;7.484;2022-08-27T08:29:59;12.93;;;10.85;;
19219;SDS011;9744;49.364;7.484;2022-08-27T08:32:26;13.82;;;10.95;;
19219;SDS011;9744;49.364;7.484;2022-08-27T08:34:54;21.13;;;15.00;;
19219;SDS011;9744;49.364;7.484;2022-08-27T08:37:21;14.05;;;11.40;;
19219;SDS011;9744;49.364;7.484;2022-08-27T08:39:49;15.63;;;12.38;;
19219;SDS011;9744;49.364;7.484;2022-08-27T08:42:23;16.13;;;12.68;;
19219;SDS011;9744;49.364;7.484;2022-08-27T08:44:59;18.98;;;13.45;;
19219;SDS011;9744;49.364;7.484;2022-08-27T08:47:29;20.42;;;16.25;;
19219;SDS011;9744;49.364;7.484;2022-08-27T08:50:04;17.35;;;14.23;;
19219;SDS011;9744;49.364;7.484;2022-08-27T08:52:39;21.17;;;16.05;;
19219;SDS011;9744;49.364;7.484;2022-08-27T08:55:16;15.75;;;12.57;;
19219;SDS011;9744;49.364;7.484;2022-08-27T08:57:57;16.48;;;13.45;;
19219;SDS011;9744;49.364;7.484;2022-08-27T09:00:34;17.33;;;14.10;;
19219;SDS011;9744;49.364;7.484;2022-08-27T09:03:04;14.30;;;11.88;;
19219;SDS011;9744;49.364;7.484;2022-08-27T09:05:31;18.00;;;13.82;;
19219;SDS011;9744;49.364;7.484;2022-08-27T09:08:04;19.88;;;14.98;;
19219;SDS011;9744;49.364;7.484;2022-08-27T09:10:40;19.63;;;15.40;;
19219;SDS011;9744;49.364;7.484;2022-08-27T09:13:18;18.38;;;13.80;;
19219;SDS011;9744;49.364;7.484;2022-08-27T09:15:49;19.50;;;15.50;;
19219;SDS011;9744;49.364;7.484;2022-08-27T09:18:20;21.15;;;14.90;;
19219;SDS011;9744;49.364;7.484;2022-08-27T09:20:49;18.52;;;13.32;;
19219;SDS011;9744;49.364;7.484;2022-08-27T09:23:22;17.50;;;13.65;;
19219;SDS011;9744;49.364;7.484;2022-08-27T09:25:52;16.17;;;13.05;;
19219;SDS011;9744;49.364;7.484;2022-08-27T09:28:20;17.05;;;13.88;;
19219;SDS011;9744;49.364;7.484;2022-08-27T09:31:10;14.38;;;12.27;;
19219;SDS011;9744;49.364;7.484;2022-08-27T09:33:39;15.48;;;12.77;;
19219;SDS011;9744;49.364;7.484;2022-08-27T09:36:10;19.67;;;13.85;;
19219;SDS011;9744;49.364;7.484;2022-08-27T09:38:41;15.10;;;11.77;;
19219;SDS011;9744;49.364;7.484;2022-08-27T09:41:22;19.85;;;14.18;;
19219;SDS011;9744;49.364;7.484;2022-08-27T09:43:58;13.63;;;10.85;;
19219;SDS011;9744;49.364;7.484;2022-08-27T09:46:28;12.40;;;10.10;;
19219;SDS011;9744;49.364;7.484;2022-08-27T09:48:55;13.15;;;10.10;;
19219;SDS011;9744;49.364;7.484;2022-08-27T09:51:24;21.48;;;14.38;;
19219;SDS011;9744;49.364;7.484;2022-08-27T09:53:53;13.60;;;10.65;;
19219;SDS011;9744;49.364;7.484;2022-08-27T09:56:25;19.45;;;13.13;;
19219;SDS011;9744;49.364;7.484;2022-08-27T09:58:58;11.13;;;9.45;;
19219;SDS011;9744;49.364;7.484;2022-08-27T10:01:30;12.70;;;9.88;;
19219;SDS011;9744;49.364;7.484;2022-08-27T10:04:06;13.13;;;9.45;;
19219;SDS011;9744;49.364;7.484;2022-08-27T10:06:34;12.93;;;10.35;;
19219;SDS011;9744;49.364;7.484;2022-08-27T10:09:05;15.02;;;11.07;;
19219;SDS011;9744;49.364;7.484;2022-08-27T10:11:36;13.88;;;11.48;;
19219;SDS011;9744;49.364;7.484;2022-08-27T10:14:10;13.85;;;10.05;;
19219;SDS011;9744;49.364;7.484;2022-08-27T10:16:47;14.68;;;10.00;;
19219;SDS011;9744;49.364;7.484;2022-08-27T10:19:29;21.40;;;12.63;;
19219;SDS011;9744;49.364;7.484;2022-08-27T10:22:09;12.48;;;9.93;;
19219;SDS011;9744;49.364;7.484;2022-08-27T10:24:47;12.02;;;9.30;;
19219;SDS011;9744;49.364;7.484;2022-08-27T10:27:28;11.20;;;9.35;;
19219;SDS011;9744;49.364;7.484;2022-08-27T10:30:06;13.90;;;10.38;;
19219;SDS011;9744;49.364;7.484;2022-08-27T10:32:43;14.43;;;10.43;;
19219;SDS011;9744;49.364;7.484;2022-08-27T10:35:21;12.68;;;10.27;;
19219;SDS011;9744;49.364;7.484;2022-08-27T10:37:53;14.05;;;10.80;;
19219;SDS011;9744;49.364;7.484;2022-08-27T10:40:32;9.85;;;8.38;;
19219;SDS011;9744;49.364;7.484;2022-08-27T10:43:08;12.02;;;9.68;;
19219;SDS011;9744;49.364;7.484;2022-08-27T10:45:49;14.15;;;10.27;;
19219;SDS011;9744;49.364;7.484;2022-08-27T10:48:29;13.52;;;8.98;;
19219;SDS011;9744;49.364;7.484;2022-08-27T10:51:03;10.48;;;8.40;;
19219;SDS011;9744;49.364;7.484;2022-08-27T10:53:38;10.15;;;8.30;;
19219;SDS011;9744;49.364;7.484;2022-08-27T10:56:15;15.25;;;11.40;;
19219;SDS011;9744;49.364;7.484;2022-08-27T10:58:53;19.08;;;15.20;;
19219;SDS011;9744;49.364;7.484;2022-08-27T11:01:30;14.57;;;9.73;;
19219;SDS011;9744;49.364;7.484;2022-08-27T11:04:07;11.05;;;8.68;;
19219;SDS011;9744;49.364;7.484;2022-08-27T11:06:40;9.70;;;7.97;;
19219;SDS011;9744;49.364;7.484;2022-08-27T11:09:12;12.05;;;9.13;;
19219;SDS011;9744;49.364;7.484;2022-08-27T11:11:43;9.10;;;7.75;;
19219;SDS011;9744;49.364;7.484;2022-08-27T11:14:15;8.75;;;7.82;;
19219;SDS011;9744;49.364;7.484;2022-08-27T11:16:51;9.52;;;8.38;;
19219;SDS011;9744;49.364;7.484;2022-08-27T11:19:24;10.10;;;7.38;;
19219;SDS011;9744;49.364;7.484;2022-08-27T11:21:59;8.68;;;7.78;;
19219;SDS011;9744;49.364;7.484;2022-08-27T11:24:34;9.65;;;8.13;;
19219;SDS011;9744;49.364;7.484;2022-08-27T11:27:07;7.85;;;7.03;;
19219;SDS011;9744;49.364;7.484;2022-08-27T11:29:38;7.85;;;6.28;;
19219;SDS011;9744;49.364;7.484;2022-08-27T11:32:14;8.63;;;6.88;;
19219;SDS011;9744;49.364;7.484;2022-08-27T11:34:52;8.55;;;6.40;;
19219;SDS011;9744;49.364;7.484;2022-08-27T11:37:27;9.05;;;6.57;;
19219;SDS011;9744;49.364;7.484;2022-08-27T11:40:17;8.07;;;6.85;;
19219;SDS011;9744;49.364;7.484;2022-08-27T11:42:59;8.52;;;6.63;;
19219;SDS011;9744;49.364;7.484;2022-08-27T11:45:31;8.95;;;7.15;;
19219;SDS011;9744;49.364;7.484;2022-08-27T11:48:13;9.27;;;6.35;;
19219;SDS011;9744;49.364;7.484;2022-08-27T11:50:52;7.40;;;6.50;;
19219;SDS011;9744;49.364;7.484;2022-08-27T11:53:23;8.90;;;6.03;;
19219;SDS011;9744;49.364;7.484;2022-08-27T11:55:52;7.15;;;6.43;;
19219;SDS011;9744;49.364;7.484;2022-08-27T11:58:25;8.00;;;6.03;;
19219;SDS011;9744;49.364;7.484;2022-08-27T12:00:54;7.28;;;6.20;;
19219;SDS011;9744;49.364;7.484;2022-08-27T12:03:27;8.07;;;7.28;;
19219;SDS011;9744;49.364;7.484;2022-08-27T12:06:09;7.72;;;6.20;;
19219;SDS011;9744;49.364;7.484;2022-08-27T12:09:04;10.57;;;7.13;;
19219;SDS011;9744;49.364;7.484;2022-08-27T12:11:36;7.97;;;6.55;;
19219;SDS011;9744;49.364;7.484;2022-08-27T12:14:13;6.55;;;5.85;;
19219;SDS011;9744;49.364;7.484;2022-08-27T12:16:52;7.80;;;7.00;;
19219;SDS011;9744;49.364;7.484;2022-08-27T12:19:35;8.80;;;6.32;;
19219;SDS011;9744;49.364;7.484;2022-08-27T12:22:15;7.00;;;6.35;;
19219;SDS011;9744;49.364;7.484;2022-08-27T12:25:21;6.88;;;5.97;;
19219;SDS011;9744;49.364;7.484;2022-08-27T12:27:53;6.30;;;5.50;;
19219;SDS011;9744;49.364;7.484;2022-08-27T12:30:27;7.57;;;6.00;;
19219;SDS011;9744;49.364;7.484;2022-08-27T12:32:58;10.05;;;6.65;;
19219;SDS011;9744;49.364;7.484;2022-08-27T12:35:39;9.25;;;6.15;;
19219;SDS011;9744;49.364;7.484;2022-08-27T12:38:12;6.65;;;5.63;;
19219;SDS011;9744;49.364;7.484;2022-08-27T12:40:45;6.68;;;5.32;;
19219;SDS011;9744;49.364;7.484;2022-08-27T12:43:17;5.85;;;5.20;;
19219;SDS011;9744;49.364;7.484;2022-08-27T12:45:47;6.30;;;5.70;;
19219;SDS011;9744;49.364;7.484;2022-08-27T12:48:17;7.90;;;5.57;;
19219;SDS011;9744;49.364;7.484;2022-08-27T12:50:51;7.07;;;5.72;;
19219;SDS011;9744;49.364;7.484;2022-08-27T12:53:33;5.70;;;5.20;;
19219;SDS011;9744;49.364;7.484;2022-08-27T12:56:20;7.13;;;5.60;;
19219;SDS011;9744;49.364;7.484;2022-08-27T12:59:02;6.85;;;5.82;;
19219;SDS011;9744;49.364;7.484;2022-08-27T13:01:46;5.53;;;4.53;;
19219;SDS011;9744;49.364;7.484;2022-08-27T13:04:23;4.88;;;4.40;;
19219;SDS011;9744;49.364;7.484;2022-08-27T13:06:53;6.13;;;5.35;;
19219;SDS011;9744;49.364;7.484;2022-08-27T13:09:26;6.38;;;4.80;;
19219;SDS011;9744;49.364;7.484;2022-08-27T13:11:55;5.72;;;4.82;;
19219;SDS011;9744;49.364;7.484;2022-08-27T13:14:24;5.88;;;4.85;;
19219;SDS011;9744;49.364;7.484;2022-08-27T13:16:53;5.53;;;4.80;;
19219;SDS011;9744;49.364;7.484;2022-08-27T13:19:23;5.50;;;5.00;;
19219;SDS011;9744;49.364;7.484;2022-08-27T13:21:53;5.22;;;4.70;;
19219;SDS011;9744;49.364;7.484;2022-08-27T13:24:27;5.80;;;5.28;;
19219;SDS011;9744;49.364;7.484;2022-08-27T13:26:56;4.97;;;4.35;;
19219;SDS011;9744;49.364;7.484;2022-08-27T13:29:24;4.95;;;3.92;;
19219;SDS011;9744;49.364;7.484;2022-08-27T13:31:52;7.28;;;4.20;;
19219;SDS011;9744;49.364;7.484;2022-08-27T13:34:21;4.35;;;3.90;;
19219;SDS011;9744;49.364;7.484;2022-08-27T13:36:55;4.78;;;4.20;;
19219;SDS011;9744;49.364;7.484;2022-08-27T13:39:24;4.93;;;3.97;;
19219;SDS011;9744;49.364;7.484;2022-08-27T13:41:53;3.88;;;3.50;;
19219;SDS011;9744;49.364;7.484;2022-08-27T13:44:24;5.53;;;4.63;;
19219;SDS011;9744;49.364;7.484;2022-08-27T13:46:57;4.00;;;3.70;;
19219;SDS011;9744;49.364;7.484;2022-08-27T13:49:28;4.40;;;4.00;;
19219;SDS011;9744;49.364;7.484;2022-08-27T13:51:57;4.50;;;4.00;;
19219;SDS011;9744;49.364;7.484;2022-08-27T13:54:27;3.65;;;3.35;;
19219;SDS011;9744;49.364;7.484;2022-08-27T13:57:02;4.82;;;3.65;;
19219;SDS011;9744;49.364;7.484;2022-08-27T13:59:35;4.13;;;3.72;;
19219;SDS011;9744;49.364;7.484;2022-08-27T14:02:14;3.97;;;3.55;;
19219;SDS011;9744;49.364;7.484;2022-08-27T14:04:46;5.45;;;4.20;;
19219;SDS011;9744;49.364;7.484;2022-08-27T14:07:15;6.82;;;4.05;;
19219;SDS011;9744;49.364;7.484;2022-08-27T14:09:49;4.50;;;4.10;;
19219;SDS011;9744;49.364;7.484;2022-08-27T14:12:32;5.80;;;3.40;;
19219;SDS011;9744;49.364;7.484;2022-08-27T14:15:11;4.78;;;3.70;;
19219;SDS011;9744;49.364;7.484;2022-08-27T14:17:45;6.50;;;4.05;;
19219;SDS011;9744;49.364;7.484;2022-08-27T14:20:13;4.18;;;3.78;;
19219;SDS011;9744;49.364;7.484;2022-08-27T14:22:41;3.85;;;3.55;;
19219;SDS011;9744;49.364;7.484;2022-08-27T14:25:11;6.35;;;3.20;;
19219;SDS011;9744;49.364;7.484;2022-08-27T14:27:41;6.25;;;3.45;;
19219;SDS011;9744;49.364;7.484;2022-08-27T14:30:10;3.90;;;3.35;;
19219;SDS011;9744;49.364;7.484;2022-08-27T14:32:39;3.67;;;3.33;;
19219;SDS011;9744;49.364;7.484;2022-08-27T14:35:06;5.60;;;3.80;;
19219;SDS011;9744;49.364;7.484;2022-08-27T14:37:35;5.00;;;3.35;;
19219;SDS011;9744;49.364;7.484;2022-08-27T14:40:03;4.20;;;3.55;;
19219;SDS011;9744;49.364;7.484;2022-08-27T14:42:36;4.10;;;3.80;;
19219;SDS011;9744;49.364;7.484;2022-08-27T14:45:15;4.82;;;4.32;;
19219;SDS011;9744;49.364;7.484;2022-08-27T14:47:42;4.18;;;3.88;;
19219;SDS011;9744;49.364;7.484;2022-08-27T14:50:10;4.63;;;4.00;;
19219;SDS011;9744;49.364;7.484;2022-08-27T14:52:38;4.25;;;3.85;;
19219;SDS011;9744;49.364;7.484;2022-08-27T14:55:06;6.85;;;3.83;;
19219;SDS011;9744;49.364;7.484;2022-08-27T14:57:34;4.38;;;3.95;;
19219;SDS011;9744;49.364;7.484;2022-08-27T15:00:03;5.72;;;4.95;;
19219;SDS011;9744;49.364;7.484;2022-08-27T15:02:34;6.97;;;4.50;;
19219;SDS011;9744;49.364;7.484;2022-08-27T15:05:05;5.05;;;4.55;;
19219;SDS011;9744;49.364;7.484;2022-08-27T15:07:32;4.72;;;4.20;;
19219;SDS011;9744;49.364;7.484;2022-08-27T15:09:59;8.15;;;4.20;;
19219;SDS011;9744;49.364;7.484;2022-08-27T15:12:27;7.50;;;4.57;;